Time;durP1;ratioP1;P1;durP2;ratioP2;P2;SDS_P1;SDS_P2;PMS_P1;PMS_P2;Temp;Humidity;BMP_temperature;BMP_pressure;BME280_temperature;BME280_humidity;BME280_pressure;Samples;Min_cycle;Max_cycle;Signal;HPM_P1;HPM_P2
2021/04/24 00:01:37;;;;;;;6.28;3.00;;;2.50;99.90;;;;;;4960359;29;20483;-68
2021/04/24 00:04:05;;;;;;;6.82;2.13;;;2.40;99.90;;;;;;4943213;29;20027;-68
2021/04/24 00:06:33;;;;;;;8.27;3.20;;;2.40;99.90;;;;;;4943094;29;20417;-68
2021/04/24 00:09:03;;;;;;;7.82;3.03;;;2.30;99.90;;;;;;4960182;29;20031;-68
2021/04/24 00:11:30;;;;;;;7.45;2.42;;;2.30;99.90;;;;;;4960577;29;20055;-67
2021/04/24 00:13:58;;;;;;;4.15;2.08;;;2.20;99.90;;;;;;4960649;29;20055;-68
2021/04/24 00:16:25;;;;;;;6.38;2.60;;;2.20;99.90;;;;;;4959989;29;20090;-67
2021/04/24 00:18:54;;;;;;;9.20;2.55;;;2.20;99.90;;;;;;4959998;29;20123;-68
2021/04/24 00:21:22;;;;;;;7.45;2.40;;;2.10;99.90;;;;;;4959927;28;20026;-68
2021/04/24 00:23:51;;;;;;;4.82;2.45;;;2.10;99.90;;;;;;4961462;29;20027;-67
2021/04/24 00:26:19;;;;;;;5.72;1.67;;;2.00;99.90;;;;;;4961277;29;20466;-67
2021/04/24 00:28:49;;;;;;;5.00;2.20;;;2.00;99.90;;;;;;4961049;29;20031;-68
2021/04/24 00:31:17;;;;;;;5.28;2.10;;;2.00;99.90;;;;;;4960509;29;20030;-68
2021/04/24 00:33:44;;;;;;;4.65;1.50;;;1.90;99.90;;;;;;4943800;29;20127;-67
2021/04/24 00:36:13;;;;;;;4.22;1.65;;;1.80;99.90;;;;;;4960508;28;20371;-68
2021/04/24 00:38:41;;;;;;;6.57;1.50;;;1.80;99.90;;;;;;4960601;29;20038;-68
2021/04/24 00:41:09;;;;;;;9.02;3.17;;;1.80;99.90;;;;;;4960705;29;20024;-68
2021/04/24 00:43:37;;;;;;;4.32;1.48;;;1.70;99.90;;;;;;4959963;29;20071;-68
2021/04/24 00:46:09;;;;;;;3.97;1.83;;;1.60;99.90;;;;;;4942395;29;20424;-68
2021/04/24 00:48:37;;;;;;;4.85;1.92;;;1.50;99.90;;;;;;4943189;29;20443;-68
2021/04/24 00:51:07;;;;;;;5.30;1.90;;;1.50;99.90;;;;;;4959793;28;20311;-68
2021/04/24 00:53:35;;;;;;;7.65;1.80;;;1.50;99.90;;;;;;4942477;29;20423;-68
2021/04/24 00:56:04;;;;;;;5.60;1.92;;;1.40;99.90;;;;;;4959842;29;20106;-68
2021/04/24 00:58:34;;;;;;;4.20;1.80;;;1.40;99.90;;;;;;4959110;29;20035;-68
2021/04/24 01:01:03;;;;;;;3.63;1.55;;;1.40;99.90;;;;;;4959427;28;20031;-68
2021/04/24 01:03:31;;;;;;;4.13;1.50;;;1.30;99.90;;;;;;4960202;29;20368;-68
2021/04/24 01:06:00;;;;;;;7.05;1.85;;;1.30;99.90;;;;;;4960582;28;20324;-68
2021/04/24 01:08:28;;;;;;;4.55;2.00;;;1.30;99.90;;;;;;4942925;29;20030;-68
2021/04/24 01:10:56;;;;;;;4.60;1.70;;;1.30;99.90;;;;;;4960454;29;20061;-68
2021/04/24 01:13:24;;;;;;;4.10;2.03;;;1.20;99.90;;;;;;4959885;29;20058;-68
2021/04/24 01:15:52;;;;;;;4.53;2.15;;;1.10;99.90;;;;;;4960075;29;20364;-68
2021/04/24 01:18:21;;;;;;;3.40;1.50;;;1.10;99.90;;;;;;4959816;29;20019;-68
2021/04/24 01:20:53;;;;;;;7.38;1.55;;;1.10;99.90;;;;;;4960107;28;20416;-68
2021/04/24 01:23:21;;;;;;;5.65;1.92;;;1.00;99.90;;;;;;4959618;29;20039;-68
2021/04/24 01:25:49;;;;;;;2.97;1.17;;;1.00;99.90;;;;;;4959546;29;20297;-68
2021/04/24 01:28:17;;;;;;;4.97;1.60;;;1.00;99.90;;;;;;4958746;29;20078;-68
2021/04/24 01:30:46;;;;;;;5.18;1.90;;;1.00;99.90;;;;;;4959208;29;20404;-68
2021/04/24 01:33:15;;;;;;;4.50;2.03;;;0.90;99.90;;;;;;4958605;29;20038;-68
2021/04/24 01:35:45;;;;;;;2.92;1.50;;;1.00;99.90;;;;;;4958928;28;20023;-68
2021/04/24 01:38:13;;;;;;;8.35;2.83;;;0.90;99.90;;;;;;4958603;29;20447;-68
2021/04/24 01:40:41;;;;;;;4.47;2.35;;;0.90;99.90;;;;;;4959190;29;20027;-68
2021/04/24 01:43:10;;;;;;;3.83;1.63;;;0.90;99.90;;;;;;4958336;29;20035;-68
2021/04/24 01:45:39;;;;;;;4.85;1.50;;;0.90;99.90;;;;;;4959214;29;20387;-68
2021/04/24 01:48:07;;;;;;;5.43;1.80;;;0.80;99.90;;;;;;4959368;29;20034;-68
2021/04/24 01:50:43;;;;;;;8.98;1.98;;;0.80;99.90;;;;;;4959285;28;20054;-68
2021/04/24 01:53:17;;;;;;;4.18;1.17;;;0.80;99.90;;;;;;4959364;29;20027;-68
2021/04/24 01:55:45;;;;;;;4.47;1.70;;;0.70;99.90;;;;;;4959361;29;20420;-68
2021/04/24 01:58:19;;;;;;;4.97;1.70;;;0.70;99.90;;;;;;4959109;29;20047;-68
2021/04/24 02:00:56;;;;;;;4.03;1.50;;;0.70;99.90;;;;;;4959757;29;20086;-68
2021/04/24 02:03:24;;;;;;;3.83;1.70;;;0.70;99.90;;;;;;4959277;29;20531;-68
2021/04/24 02:05:52;;;;;;;4.15;1.27;;;0.70;99.90;;;;;;4958416;28;20072;-68
2021/04/24 02:08:22;;;;;;;6.00;1.95;;;0.70;99.90;;;;;;4958866;29;20031;-68
2021/04/24 02:10:53;;;;;;;2.50;1.23;;;0.60;99.90;;;;;;4958928;29;20405;-68
2021/04/24 02:13:23;;;;;;;6.13;2.08;;;0.60;99.90;;;;;;4960659;28;20038;-68
2021/04/24 02:15:52;;;;;;;8.27;1.73;;;0.60;99.90;;;;;;4962610;29;20074;-68
2021/04/24 02:18:22;;;;;;;3.08;1.50;;;0.60;99.90;;;;;;4945169;29;20019;-68
2021/04/24 02:20:50;;;;;;;4.57;1.50;;;0.40;99.90;;;;;;4962236;28;20031;-67
2021/04/24 02:23:18;;;;;;;3.83;1.55;;;0.40;99.90;;;;;;4962069;29;20032;-68
2021/04/24 02:25:47;;;;;;;8.20;1.85;;;0.40;99.90;;;;;;4962523;29;20019;-68
2021/04/24 02:28:15;;;;;;;3.80;1.35;;;0.40;99.90;;;;;;4945899;29;20042;-68
2021/04/24 02:30:45;;;;;;;3.60;1.60;;;0.30;99.90;;;;;;4963503;29;20019;-68
2021/04/24 02:33:12;;;;;;;5.03;1.65;;;0.30;99.90;;;;;;4962826;29;20424;-68
2021/04/24 02:35:56;;;;;;;4.00;2.00;;;0.40;99.90;;;;;;4963084;28;20034;-68
2021/04/24 02:38:26;;;;;;;4.03;1.58;;;0.40;99.90;;;;;;4962673;29;20034;-68
2021/04/24 02:40:55;;;;;;;7.75;1.90;;;0.50;99.90;;;;;;4945743;29;20069;-68
2021/04/24 02:43:23;;;;;;;4.88;1.58;;;0.50;99.90;;;;;;4945566;29;20031;-67
2021/04/24 02:45:52;;;;;;;8.05;1.50;;;0.60;99.90;;;;;;4962358;29;20027;-68
2021/04/24 02:48:21;;;;;;;4.90;1.70;;;0.70;99.90;;;;;;4961647;29;20424;-68
2021/04/24 02:50:49;;;;;;;3.75;1.48;;;0.80;99.90;;;;;;4961852;28;20325;-68
2021/04/24 02:53:17;;;;;;;5.40;1.48;;;0.80;99.90;;;;;;4961515;29;20443;-68
2021/04/24 02:55:45;;;;;;;4.22;1.50;;;0.90;99.90;;;;;;4961552;29;20027;-68
2021/04/24 02:58:13;;;;;;;4.60;1.45;;;1.00;99.90;;;;;;4961517;29;20047;-68
2021/04/24 03:00:41;;;;;;;6.38;1.63;;;1.10;99.90;;;;;;4961844;29;20353;-68
2021/04/24 03:03:11;;;;;;;3.75;1.77;;;1.10;99.90;;;;;;4961902;29;20106;-68
2021/04/24 03:05:41;;;;;;;4.97;2.00;;;1.20;99.90;;;;;;4961856;28;20024;-68
2021/04/24 03:08:10;;;;;;;4.28;1.50;;;1.30;99.90;;;;;;4962137;29;20038;-68
2021/04/24 03:10:39;;;;;;;6.82;1.95;;;1.30;99.90;;;;;;4962579;29;20027;-68
2021/04/24 03:13:10;;;;;;;4.53;1.42;;;1.40;99.90;;;;;;4962126;29;20432;-68
2021/04/24 03:15:38;;;;;;;3.88;1.83;;;1.40;99.90;;;;;;4962358;29;20051;-67
2021/04/24 03:18:06;;;;;;;5.10;2.10;;;1.40;99.90;;;;;;4962035;29;20019;-68
2021/04/24 03:20:34;;;;;;;6.43;1.88;;;1.40;99.90;;;;;;4961940;28;20035;-68
2021/04/24 03:23:04;;;;;;;5.00;1.80;;;1.40;99.90;;;;;;4961860;28;20024;-68
2021/04/24 03:25:31;;;;;;;6.07;2.45;;;1.40;99.90;;;;;;4961365;29;20031;-68
2021/04/24 03:27:59;;;;;;;4.78;1.40;;;1.50;99.90;;;;;;4961518;29;20118;-68
2021/04/24 03:30:28;;;;;;;5.03;1.85;;;1.50;99.90;;;;;;4961212;29;20123;-68
2021/04/24 03:32:55;;;;;;;7.07;2.00;;;1.60;99.90;;;;;;4960844;29;20095;-68
2021/04/24 03:35:23;;;;;;;6.50;2.30;;;1.60;99.90;;;;;;4961431;28;20197;-68
2021/04/24 03:37:51;;;;;;;6.50;2.25;;;1.70;99.90;;;;;;4961307;29;20062;-68
2021/04/24 03:40:19;;;;;;;4.80;1.52;;;1.70;99.90;;;;;;4960768;29;20031;-68
2021/04/24 03:42:47;;;;;;;6.07;1.90;;;1.80;99.90;;;;;;4960706;29;20035;-68
2021/04/24 03:45:19;;;;;;;5.88;2.08;;;1.80;99.90;;;;;;4961320;29;20037;-68
2021/04/24 03:47:48;;;;;;;4.03;1.67;;;1.90;99.90;;;;;;4961156;29;20039;-68
2021/04/24 03:50:17;;;;;;;9.13;2.35;;;2.00;99.90;;;;;;4961337;28;20023;-68
2021/04/24 03:52:45;;;;;;;6.40;2.55;;;2.00;99.90;;;;;;4961395;29;20051;-68
2021/04/24 03:55:14;;;;;;;8.20;1.83;;;2.10;99.90;;;;;;4962023;29;20373;-68
2021/04/24 03:57:54;;;;;;;7.80;2.72;;;2.10;99.90;;;;;;4961528;29;20054;-68
2021/04/24 04:00:25;;;;;;;6.47;2.30;;;2.10;99.90;;;;;;4961858;29;20111;-68
2021/04/24 04:03:01;;;;;;;7.03;1.90;;;2.20;99.90;;;;;;4961179;29;20055;-68
2021/04/24 04:05:34;;;;;;;5.75;2.10;;;2.20;99.90;;;;;;4961681;28;20098;-68
2021/04/24 04:08:04;;;;;;;6.38;2.22;;;2.20;99.90;;;;;;4960229;29;20062;-68
2021/04/24 04:10:33;;;;;;;6.47;2.13;;;2.30;99.90;;;;;;4943132;29;20035;-68
2021/04/24 04:13:01;;;;;;;6.82;1.98;;;2.30;99.90;;;;;;4960173;29;20077;-68
2021/04/24 04:15:29;;;;;;;6.00;2.30;;;2.30;99.90;;;;;;4960837;29;20016;-68
2021/04/24 04:18:07;;;;;;;9.32;2.13;;;2.40;99.90;;;;;;4960616;29;20074;-68
2021/04/24 04:20:48;;;;;;;7.50;2.53;;;2.40;99.90;;;;;;4960012;28;20156;-68
2021/04/24 04:23:15;;;;;;;7.15;2.38;;;2.40;99.90;;;;;;4959895;29;20336;-68
2021/04/24 04:25:44;;;;;;;7.85;2.53;;;2.40;99.90;;;;;;4960460;29;20023;-68
2021/04/24 04:28:12;;;;;;;6.82;2.90;;;2.40;99.90;;;;;;4960362;29;20023;-68
2021/04/24 04:30:41;;;;;;;6.38;2.10;;;2.50;99.90;;;;;;4944272;29;20034;-68
2021/04/24 04:33:09;;;;;;;6.45;2.65;;;2.50;99.90;;;;;;4960672;29;20019;-68
2021/04/24 04:35:38;;;;;;;6.57;2.10;;;2.50;99.90;;;;;;4942816;29;20030;-68
2021/04/24 04:38:07;;;;;;;10.88;2.78;;;2.60;99.90;;;;;;4960632;29;20023;-68
2021/04/24 04:40:35;;;;;;;7.65;2.50;;;2.70;99.90;;;;;;4943683;29;20038;-68
2021/04/24 04:43:03;;;;;;;7.70;2.65;;;2.80;99.90;;;;;;4960750;29;20059;-68
2021/04/24 04:45:31;;;;;;;6.63;2.60;;;2.90;99.90;;;;;;4961024;29;20098;-68
2021/04/24 04:47:59;;;;;;;7.18;1.95;;;2.90;99.90;;;;;;4959709;29;20023;-68
2021/04/24 04:50:34;;;;;;;5.40;2.35;;;3.00;99.90;;;;;;4959442;28;20050;-68
2021/04/24 04:53:04;;;;;;;4.07;1.73;;;3.10;99.90;;;;;;4959410;29;20023;-68
2021/04/24 04:55:32;;;;;;;8.73;2.75;;;3.20;99.90;;;;;;4959408;29;20019;-68
2021/04/24 04:58:00;;;;;;;7.57;2.70;;;3.30;99.90;;;;;;4942090;29;20106;-68
2021/04/24 05:00:28;;;;;;;7.72;2.42;;;3.40;99.90;;;;;;4959416;29;20099;-68
2021/04/24 05:02:56;;;;;;;8.68;2.17;;;3.50;99.90;;;;;;4959214;29;20328;-68
2021/04/24 05:05:25;;;;;;;5.38;2.22;;;3.60;99.90;;;;;;4942044;29;20031;-68
2021/04/24 05:07:52;;;;;;;8.45;2.60;;;3.70;99.90;;;;;;4959159;29;20078;-68
2021/04/24 05:10:21;;;;;;;6.18;2.60;;;3.80;99.90;;;;;;4942928;29;20498;-68
2021/04/24 05:12:49;;;;;;;8.93;3.40;;;3.90;99.90;;;;;;4959860;29;20106;-68
2021/04/24 05:15:18;;;;;;;11.85;3.90;;;4.00;99.90;;;;;;4960432;29;20047;-68
2021/04/24 05:17:45;;;;;;;7.78;3.78;;;4.20;99.90;;;;;;4942869;29;20027;-68
2021/04/24 05:20:14;;;;;;;8.00;3.60;;;4.30;99.90;;;;;;4960169;28;20028;-68
2021/04/24 05:22:43;;;;;;;15.82;5.05;;;4.40;99.90;;;;;;4959750;29;20375;-67
2021/04/24 05:25:10;;;;;;;18.77;7.00;;;4.50;99.90;;;;;;4959883;29;20320;-67
2021/04/24 05:27:39;;;;;;;14.40;6.00;;;4.60;99.90;;;;;;4959973;29;20026;-68
2021/04/24 05:30:07;;;;;;;13.55;5.15;;;4.70;99.90;;;;;;4959437;29;20023;-67
2021/04/24 05:32:34;;;;;;;12.20;4.65;;;4.80;99.90;;;;;;4941826;29;20054;-68
2021/04/24 05:35:03;;;;;;;19.27;6.13;;;4.90;99.90;;;;;;4958843;28;20028;-67
2021/04/24 05:37:30;;;;;;;16.80;5.03;;;5.00;99.90;;;;;;4941671;29;20030;-68
2021/04/24 05:39:58;;;;;;;11.27;5.93;;;5.10;99.90;;;;;;4959159;29;20019;-70
2021/04/24 05:42:25;;;;;;;15.13;6.05;;;5.10;99.90;;;;;;4958596;29;20049;-69
2021/04/24 05:44:53;;;;;;;16.67;5.85;;;5.10;99.90;;;;;;4958597;29;20020;-72
2021/04/24 05:47:21;;;;;;;13.90;4.47;;;5.10;99.90;;;;;;4958518;28;20405;-68
2021/04/24 05:49:48;;;;;;;13.40;5.38;;;5.20;99.90;;;;;;4959109;28;20031;-69
2021/04/24 05:52:16;;;;;;;16.05;5.95;;;5.20;99.90;;;;;;4959346;29;20085;-68
2021/04/24 05:54:44;;;;;;;9.32;4.47;;;5.20;99.90;;;;;;4959859;29;20462;-68
2021/04/24 05:57:12;;;;;;;14.07;4.88;;;5.30;99.90;;;;;;4958977;29;20499;-68
2021/04/24 05:59:39;;;;;;;9.70;4.85;;;5.30;99.90;;;;;;4942236;29;20122;-68
2021/04/24 06:02:07;;;;;;;12.27;4.55;;;5.30;99.90;;;;;;4959174;29;20046;-69
2021/04/24 06:04:35;;;;;;;10.50;4.78;;;5.40;99.90;;;;;;4959712;29;20055;-68
2021/04/24 06:07:04;;;;;;;9.77;4.57;;;5.40;99.90;;;;;;4959090;28;20062;-67
2021/04/24 06:09:32;;;;;;;11.45;4.55;;;5.40;99.90;;;;;;4958931;29;20420;-68
2021/04/24 06:12:00;;;;;;;13.57;5.00;;;5.50;99.90;;;;;;4958217;29;20539;-68
2021/04/24 06:14:28;;;;;;;15.48;5.15;;;5.50;99.90;;;;;;4958789;29;20054;-67
2021/04/24 06:16:56;;;;;;;13.13;5.40;;;5.60;99.90;;;;;;4958187;29;20034;-67
2021/04/24 06:19:26;;;;;;;11.35;5.07;;;5.70;99.90;;;;;;4958281;29;20020;-68
2021/04/24 06:21:55;;;;;;;13.80;5.72;;;5.70;99.90;;;;;;4958051;28;20023;-69
2021/04/24 06:24:22;;;;;;;12.32;4.75;;;5.80;99.90;;;;;;4941115;29;20069;-68
2021/04/24 06:26:51;;;;;;;12.40;5.53;;;5.90;99.90;;;;;;4958129;29;20024;-69
2021/04/24 06:29:19;;;;;;;11.43;5.47;;;6.00;99.90;;;;;;4958112;29;20031;-67
2021/04/24 06:31:47;;;;;;;13.32;4.60;;;6.10;99.90;;;;;;4941516;29;20027;-67
2021/04/24 06:34:15;;;;;;;13.55;5.28;;;6.20;99.90;;;;;;4959388;29;20413;-67
2021/04/24 06:36:43;;;;;;;11.90;4.70;;;6.30;99.90;;;;;;4958834;28;20424;-68
2021/04/24 06:39:11;;;;;;;6.85;3.80;;;6.40;99.90;;;;;;4959606;29;20055;-67
2021/04/24 06:41:39;;;;;;;8.65;3.67;;;6.40;99.90;;;;;;4958816;29;20058;-74
2021/04/24 06:44:06;;;;;;;8.57;3.80;;;6.50;99.90;;;;;;4959080;29;20106;-68
2021/04/24 06:46:34;;;;;;;11.27;4.07;;;6.60;99.90;;;;;;4941570;29;20039;-69
2021/04/24 06:49:02;;;;;;;9.70;3.60;;;6.70;99.90;;;;;;4941877;29;20376;-69
2021/04/24 06:51:29;;;;;;;10.10;4.22;;;6.80;99.90;;;;;;4958620;28;20353;-69
2021/04/24 06:53:57;;;;;;;9.40;3.78;;;6.90;99.90;;;;;;4958470;29;20023;-68
2021/04/24 06:56:24;;;;;;;7.93;4.10;;;6.90;99.90;;;;;;4958399;29;20043;-68
2021/04/24 06:58:51;;;;;;;11.80;4.13;;;6.90;99.90;;;;;;4942152;29;20102;-68
2021/04/24 07:01:19;;;;;;;10.77;3.90;;;6.90;99.90;;;;;;4961730;29;20061;-70
2021/04/24 07:03:47;;;;;;;9.75;4.18;;;6.90;99.90;;;;;;4961414;29;20035;-68
2021/04/24 07:06:14;;;;;;;10.35;4.30;;;6.90;99.90;;;;;;4961490;28;20031;-68
2021/04/24 07:08:41;;;;;;;14.65;6.13;;;6.90;99.90;;;;;;4961868;29;20027;-68
2021/04/24 07:11:09;;;;;;;8.98;4.38;;;6.90;99.90;;;;;;4961877;29;20027;-68
2021/04/24 07:13:37;;;;;;;11.57;4.72;;;6.90;99.90;;;;;;4962368;29;20019;-68
2021/04/24 07:16:10;;;;;;;10.55;4.65;;;6.90;99.90;;;;;;4962026;29;20023;-68
2021/04/24 07:18:40;;;;;;;11.73;4.60;;;6.90;99.90;;;;;;4961593;29;20439;-68
2021/04/24 07:21:09;;;;;;;9.15;4.80;;;6.90;99.90;;;;;;4961948;28;20038;-68
2021/04/24 07:23:38;;;;;;;8.75;4.50;;;6.90;99.90;;;;;;4945113;29;20027;-67
2021/04/24 07:26:05;;;;;;;8.50;3.78;;;6.90;99.90;;;;;;4961922;29;20466;-67
2021/04/24 07:28:33;;;;;;;8.18;4.18;;;6.90;99.60;;;;;;4962173;29;20031;-67
2021/04/24 07:31:02;;;;;;;11.48;4.60;;;6.80;99.60;;;;;;4961841;29;20106;-68
2021/04/24 07:33:31;;;;;;;9.35;4.00;;;6.80;99.20;;;;;;4961822;29;20033;-68
2021/04/24 07:35:59;;;;;;;11.70;4.60;;;6.90;99.30;;;;;;4961234;28;20038;-67
2021/04/24 07:38:26;;;;;;;10.25;5.00;;;6.90;99.30;;;;;;4961376;29;20020;-67
2021/04/24 07:40:53;;;;;;;11.85;5.50;;;7.00;99.40;;;;;;4961329;29;20504;-68
2021/04/24 07:43:21;;;;;;;12.55;5.25;;;7.10;99.50;;;;;;4961110;29;20110;-69
2021/04/24 07:45:49;;;;;;;9.35;4.85;;;7.20;99.50;;;;;;4943609;29;20033;-68
2021/04/24 07:48:16;;;;;;;7.57;3.00;;;7.30;99.40;;;;;;4944461;29;20035;-68
2021/04/24 07:50:45;;;;;;;7.32;3.15;;;7.50;97.70;;;;;;4961030;28;20059;-68
2021/04/24 07:53:13;;;;;;;6.97;3.08;;;7.70;97.60;;;;;;4961409;29;20367;-68
2021/04/24 07:55:42;;;;;;;7.95;2.75;;;7.80;96.20;;;;;;4961459;29;20020;-68
2021/04/24 07:58:10;;;;;;;12.10;4.15;;;8.00;95.50;;;;;;4961487;29;20406;-68
2021/04/24 08:00:39;;;;;;;9.93;3.95;;;8.30;96.00;;;;;;4944054;29;20031;-68
2021/04/24 08:03:08;;;;;;;10.32;3.88;;;8.40;95.40;;;;;;4961151;29;20443;-68
2021/04/24 08:05:37;;;;;;;7.60;2.42;;;8.60;94.60;;;;;;4961782;28;20027;-68
2021/04/24 08:08:05;;;;;;;9.27;3.03;;;8.60;94.30;;;;;;4944163;29;20085;-69
2021/04/24 08:10:33;;;;;;;6.25;2.15;;;8.70;94.40;;;;;;4960203;28;20026;-69
2021/04/24 08:13:03;;;;;;;5.78;2.40;;;8.70;92.60;;;;;;4943695;29;20027;-69
2021/04/24 08:15:32;;;;;;;10.23;2.92;;;8.80;92.30;;;;;;4960833;29;20445;-69
2021/04/24 08:18:01;;;;;;;5.25;2.33;;;8.80;91.90;;;;;;4960469;29;20015;-69
2021/04/24 08:20:30;;;;;;;7.72;2.70;;;8.80;91.70;;;;;;4960265;28;20033;-69
2021/04/24 08:22:58;;;;;;;8.73;2.45;;;8.90;92.00;;;;;;4960137;29;20030;-67
2021/04/24 08:25:26;;;;;;;8.60;2.00;;;8.90;91.90;;;;;;4960664;29;20034;-67
2021/04/24 08:27:54;;;;;;;10.10;2.40;;;9.00;91.90;;;;;;4960497;29;20106;-67
2021/04/24 08:30:22;;;;;;;8.75;2.85;;;9.10;91.00;;;;;;4960393;29;20110;-67
2021/04/24 08:32:50;;;;;;;11.20;2.42;;;9.30;91.00;;;;;;4960431;29;20023;-67
2021/04/24 08:35:18;;;;;;;5.95;2.55;;;9.40;90.30;;;;;;4960491;28;20028;-67
2021/04/24 08:37:46;;;;;;;8.10;1.90;;;9.40;88.60;;;;;;4961148;29;20019;-67
2021/04/24 08:40:17;;;;;;;5.38;1.42;;;9.60;88.20;;;;;;4960387;29;20101;-67
2021/04/24 08:42:48;;;;;;;6.68;1.80;;;9.80;86.20;;;;;;4960743;29;20049;-67
2021/04/24 08:45:20;;;;;;;9.23;3.17;;;10.00;84.80;;;;;;4943766;29;20375;-68
2021/04/24 08:47:51;;;;;;;12.48;3.92;;;10.10;83.90;;;;;;4960378;29;20026;-68
2021/04/24 08:50:22;;;;;;;3.95;2.50;;;10.20;83.60;;;;;;4960838;28;20035;-67
2021/04/24 08:52:53;;;;;;;8.45;2.00;;;10.30;81.40;;;;;;4960025;29;20035;-67
2021/04/24 08:55:23;;;;;;;6.03;1.92;;;10.30;80.70;;;;;;4959576;29;20055;-67
2021/04/24 08:57:52;;;;;;;7.13;1.80;;;10.40;79.50;;;;;;4959502;29;20066;-67
2021/04/24 09:00:30;;;;;;;5.30;2.25;;;10.40;80.10;;;;;;4960182;29;20430;-67
2021/04/24 09:02:59;;;;;;;10.93;2.50;;;10.40;80.00;;;;;;4959882;29;20035;-67
2021/04/24 09:05:28;;;;;;;4.95;2.17;;;10.40;77.80;;;;;;4942264;29;20328;-67
2021/04/24 09:08:00;;;;;;;9.50;2.28;;;10.40;79.60;;;;;;4959739;29;20106;-67
2021/04/24 09:10:28;;;;;;;5.78;2.20;;;10.40;79.40;;;;;;4959716;29;20022;-67
2021/04/24 09:12:55;;;;;;;6.97;2.30;;;10.50;80.10;;;;;;4959710;29;20019;-67
2021/04/24 09:15:25;;;;;;;9.77;2.10;;;10.50;78.20;;;;;;4959777;29;20055;-67
2021/04/24 09:18:03;;;;;;;7.03;2.53;;;10.50;78.60;;;;;;4960474;29;20315;-67
2021/04/24 09:20:41;;;;;;;5.53;2.53;;;10.50;76.80;;;;;;4959887;28;20079;-67
2021/04/24 09:23:09;;;;;;;6.50;2.30;;;10.50;76.20;;;;;;4960242;29;20031;-67
2021/04/24 09:25:44;;;;;;;6.60;2.30;;;10.50;76.80;;;;;;4959973;29;20077;-66
2021/04/24 09:28:26;;;;;;;7.88;2.72;;;10.60;74.50;;;;;;4942647;29;20031;-67
2021/04/24 09:30:54;;;;;;;6.38;2.33;;;10.60;72.70;;;;;;4960229;29;20478;-67
2021/04/24 09:33:22;;;;;;;4.78;2.45;;;10.50;72.90;;;;;;4960046;29;20074;-66
2021/04/24 09:35:57;;;;;;;6.45;2.70;;;10.60;71.40;;;;;;4959074;28;20420;-67
2021/04/24 09:38:28;;;;;;;9.25;2.70;;;10.70;71.90;;;;;;4959208;29;20039;-68
2021/04/24 09:41:12;;;;;;;8.82;2.33;;;10.80;71.90;;;;;;4959177;29;20420;-67
2021/04/24 09:43:58;;;;;;;7.22;2.53;;;11.00;72.00;;;;;;4959194;29;20055;-67
2021/04/24 09:46:33;;;;;;;5.63;2.42;;;11.10;72.00;;;;;;4959396;29;20027;-67
2021/04/24 09:49:16;;;;;;;10.88;2.42;;;11.20;71.70;;;;;;4958702;29;20019;-74
2021/04/24 09:51:52;;;;;;;6.95;2.55;;;11.20;71.60;;;;;;4958544;28;20216;-67
2021/04/24 09:54:22;;;;;;;6.57;2.50;;;11.20;71.70;;;;;;4959034;29;20313;-67
2021/04/24 09:57:01;;;;;;;5.50;2.22;;;11.20;72.70;;;;;;4959338;29;20026;-67
2021/04/24 09:59:30;;;;;;;10.57;2.80;;;11.20;71.70;;;;;;4942487;29;20045;-67
2021/04/24 10:02:01;;;;;;;6.50;2.63;;;11.30;71.80;;;;;;4959390;29;20114;-67
2021/04/24 10:04:30;;;;;;;9.07;2.70;;;11.30;69.90;;;;;;4959234;29;20031;-67
2021/04/24 10:06:58;;;;;;;8.45;2.88;;;11.50;69.60;;;;;;4959212;28;20034;-67
2021/04/24 10:09:31;;;;;;;8.10;3.28;;;11.60;69.20;;;;;;4959485;29;20030;-67
2021/04/24 10:12:02;;;;;;;9.80;3.08;;;11.80;69.80;;;;;;4959060;29;20320;-67
2021/04/24 10:14:45;;;;;;;6.80;3.00;;;12.00;69.20;;;;;;4959631;29;20492;-67
2021/04/24 10:17:14;;;;;;;5.03;2.65;;;12.20;67.80;;;;;;4958209;29;20026;-66
2021/04/24 10:19:43;;;;;;;6.07;2.42;;;12.40;67.50;;;;;;4958166;29;20015;-66
2021/04/24 10:22:17;;;;;;;5.53;2.58;;;12.60;66.90;;;;;;4957999;28;20030;-66
2021/04/24 10:24:44;;;;;;;7.47;2.97;;;12.70;64.60;;;;;;4958849;29;20034;-67
2021/04/24 10:27:15;;;;;;;7.38;2.55;;;12.60;64.80;;;;;;4958688;29;20034;-67
2021/04/24 10:29:45;;;;;;;4.97;1.90;;;12.60;65.10;;;;;;4958165;29;20031;-67
2021/04/24 10:32:14;;;;;;;5.20;2.90;;;12.60;64.60;;;;;;4958039;28;20046;-67
2021/04/24 10:34:41;;;;;;;7.07;2.95;;;12.70;64.80;;;;;;4960957;29;20023;-66
2021/04/24 10:37:10;;;;;;;7.70;3.63;;;12.70;64.20;;;;;;4962300;28;20102;-66
2021/04/24 10:39:41;;;;;;;6.75;3.00;;;12.70;64.50;;;;;;4962867;29;20058;-69
2021/04/24 10:42:22;;;;;;;7.65;2.88;;;12.70;64.50;;;;;;4963381;29;20028;-66
2021/04/24 10:44:52;;;;;;;7.82;2.85;;;12.80;64.80;;;;;;4962716;29;20033;-66
2021/04/24 10:47:41;;;;;;;8.15;3.13;;;12.80;64.20;;;;;;4963414;29;20023;-66
2021/04/24 10:50:15;;;;;;;4.95;2.85;;;12.80;64.00;;;;;;4963359;28;20030;-66
2021/04/24 10:52:44;;;;;;;10.32;3.47;;;12.80;64.90;;;;;;4962805;29;20320;-66
2021/04/24 10:55:26;;;;;;;9.73;3.45;;;12.70;64.10;;;;;;4962361;29;20091;-66
2021/04/24 10:58:02;;;;;;;11.57;2.88;;;12.70;63.30;;;;;;4961391;29;20090;-66
2021/04/24 11:00:33;;;;;;;5.40;2.67;;;12.80;63.80;;;;;;4961616;29;20094;-66
2021/04/24 11:03:01;;;;;;;5.05;2.50;;;12.80;62.80;;;;;;4962007;29;20019;-66
2021/04/24 11:05:33;;;;;;;6.25;2.60;;;12.80;61.40;;;;;;4944894;29;20046;-66
2021/04/24 11:08:20;;;;;;;7.72;2.75;;;12.90;61.40;;;;;;4961237;29;20027;-66
2021/04/24 11:10:48;;;;;;;;;;;13.00;61.40;;;;;;4961742;29;20027;-66
2021/04/24 11:13:19;;;;;;;6.60;2.67;;;13.00;61.00;;;;;;4961543;29;19906;-66
2021/04/24 11:15:48;;;;;;;8.45;2.58;;;13.00;61.40;;;;;;4944232;29;20024;-66
2021/04/24 11:18:16;;;;;;;8.38;2.90;;;13.00;61.30;;;;;;4962144;29;20437;-65
2021/04/24 11:21:05;;;;;;;6.43;3.28;;;12.90;60.30;;;;;;4962803;28;20046;-66
2021/04/24 11:23:32;;;;;;;5.68;2.10;;;12.70;62.10;;;;;;4961984;29;20098;-66
2021/04/24 11:26:01;;;;;;;7.47;2.75;;;12.60;58.60;;;;;;4962505;29;20055;-66
2021/04/24 11:28:30;;;;;;;6.95;2.40;;;12.50;59.50;;;;;;4961834;29;20027;-66
2021/04/24 11:30:59;;;;;;;5.72;2.67;;;12.60;59.50;;;;;;4962007;29;20042;-66
2021/04/24 11:33:38;;;;;;;7.15;3.25;;;12.70;60.20;;;;;;4961831;29;20319;-66
2021/04/24 11:36:25;;;;;;;5.43;2.75;;;12.90;58.40;;;;;;4961654;28;20423;-69
2021/04/24 11:39:00;;;;;;;9.77;3.13;;;13.00;58.60;;;;;;4943780;29;20334;-66
2021/04/24 11:41:32;;;;;;;6.13;2.70;;;13.10;58.60;;;;;;4943857;29;20027;-66
2021/04/24 11:44:27;;;;;;;5.68;2.63;;;13.20;58.50;;;;;;4961161;28;20023;-66
2021/04/24 11:46:56;;;;;;;8.48;2.70;;;13.10;59.70;;;;;;4960695;29;20031;-65
2021/04/24 11:49:29;;;;;;;8.35;3.03;;;13.20;59.70;;;;;;4960694;29;20038;-66
2021/04/24 11:52:11;;;;;;;5.75;2.83;;;13.00;58.10;;;;;;4960504;28;20027;-66
2021/04/24 11:54:42;;;;;;;14.18;3.35;;;13.00;59.60;;;;;;4960575;29;20024;-67
2021/04/24 11:57:13;;;;;;;6.75;2.75;;;13.10;59.60;;;;;;4960452;29;20040;-66
2021/04/24 11:59:43;;;;;;;10.43;3.22;;;13.10;58.50;;;;;;4961385;29;20019;-66
2021/04/24 12:02:28;;;;;;;8.20;2.50;;;13.20;58.30;;;;;;4961856;29;20042;-66
2021/04/24 12:05:11;;;;;;;6.20;2.85;;;13.40;57.50;;;;;;4961414;28;20111;-66
2021/04/24 12:07:50;;;;;;;6.32;2.70;;;13.40;57.50;;;;;;4961775;29;20024;-66
2021/04/24 12:10:19;;;;;;;9.07;2.50;;;13.50;58.60;;;;;;4961091;29;20424;-66
2021/04/24 12:12:51;;;;;;;9.48;3.25;;;13.80;57.50;;;;;;4961625;29;20031;-66
2021/04/24 12:15:24;;;;;;;8.23;3.03;;;14.10;56.40;;;;;;4961318;29;20023;-67
2021/04/24 12:17:53;;;;;;;6.97;2.88;;;14.50;55.80;;;;;;4960417;29;20028;-67
2021/04/24 12:20:26;;;;;;;8.55;2.92;;;14.80;55.10;;;;;;4960056;28;20082;-67
2021/04/24 12:22:55;;;;;;;8.80;3.28;;;14.90;54.10;;;;;;4960561;29;20019;-66
2021/04/24 12:25:25;;;;;;;8.73;2.75;;;14.80;53.80;;;;;;4960206;29;20019;-70
2021/04/24 12:27:56;;;;;;;5.93;2.42;;;14.70;54.80;;;;;;4960759;29;20035;-66
2021/04/24 12:30:29;;;;;;;6.90;2.97;;;14.60;54.60;;;;;;4959864;29;20026;-66
2021/04/24 12:33:05;;;;;;;5.97;2.70;;;14.70;55.70;;;;;;4960418;29;20023;-66
2021/04/24 12:35:47;;;;;;;8.70;2.80;;;14.70;54.90;;;;;;4960317;28;20016;-66
2021/04/24 12:38:21;;;;;;;5.93;2.42;;;14.60;53.10;;;;;;4944071;29;20032;-67
2021/04/24 12:40:55;;;;;;;8.93;2.65;;;14.40;51.70;;;;;;4960627;29;20037;-66
2021/04/24 12:43:25;;;;;;;7.97;3.20;;;14.20;52.40;;;;;;4961002;29;20423;-67
2021/04/24 12:45:55;;;;;;;8.30;2.88;;;14.20;53.00;;;;;;4960699;29;20025;-66
2021/04/24 12:48:35;;;;;;;6.30;2.85;;;14.30;53.30;;;;;;4943490;29;20129;-66
2021/04/24 12:51:04;;;;;;;6.72;2.50;;;14.60;52.50;;;;;;4960221;28;20082;-66
2021/04/24 12:53:42;;;;;;;5.55;2.67;;;15.00;52.30;;;;;;4960305;29;20019;-67
2021/04/24 12:56:15;;;;;;;5.82;2.75;;;15.30;51.80;;;;;;4959834;28;20055;-66
2021/04/24 12:58:45;;;;;;;6.40;2.60;;;15.60;51.80;;;;;;4959416;29;20058;-67
2021/04/24 13:01:27;;;;;;;5.47;2.42;;;16.00;51.20;;;;;;4959191;29;20024;-66
2021/04/24 13:03:58;;;;;;;6.43;2.95;;;16.10;50.90;;;;;;4942405;29;20031;-67
2021/04/24 13:06:31;;;;;;;7.15;2.88;;;16.30;50.70;;;;;;4942010;29;20392;-67
2021/04/24 13:09:02;;;;;;;8.85;2.60;;;16.70;48.60;;;;;;4959194;29;20023;-67